• Join FlightAware (Why Join?)
  • Login
  • US Flag 
11:25PM EST


 

Airport Tracker/Info


-or-


 

Live Flight TrackerFlight Track Log ✈ EJA641 ✈ 18-Apr-2013 ✈ KHOU - KSGR

Flight Track Log - Related Links

Times and Time Zones

All times are in EDT time to prevent confusion due to time zone crossing. See the EJA641 flight status page for this flight to view local times or setup timezone preferences in your user account.

Time Position Orientation Groundspeed Altitude Reporting Facility
EDT Latitude Longitude Course Direction KTS MPH feet Rate Location/Type
11:43AM 29.6350 -95.2844 213° Southwest 150 173 600  Level Houston Center
11:44AM 29.5858 -95.3214 213° Southwest 202 232 2,900 1,440 Climbing Houston Center
11:45AM 29.5761 -95.3464 246° West 207 238 3,000 98 Climbing Houston Center
11:45AM 29.5817 -95.3892 279° West 246 283 3,000  Level Houston Center
11:46AM 29.5856 -95.4211 278° West 230 265 3,000  Level Houston Center
11:46AM 29.5908 -95.4675 277° West 234 269 3,000  Level Houston Center
11:47AM 29.6017 -95.4906 298° West 231 266 3,000  Level Houston Center
11:47AM 29.6256 -95.5258 308° West 228 262 3,000  Level Houston Center
11:48AM 29.6486 -95.5583 309° West 229 264 3,000  Level Houston Center
11:48AM 29.6619 -95.5792 306° West 224 258 3,000  Level Houston Center
11:49AM 29.7033 -95.5892 348° North 236 272 3,000  Level Houston Center
11:49AM 29.7322 -95.5925 354° North 241 277 3,000  Level Houston Center
11:50AM 29.7700 -95.5994 351° North 239 275 3,000  Level Houston Center
11:50AM 29.7900 -95.6025 352° North 228 262 3,000 -228 Level Houston Center
11:51AM 29.8358 -95.6236 338° Northwest 180 207 2,700 -505 Descending Houston Center
11:52AM 29.8339 -95.6586 266° West 187 215 2,100 -689 Descending Houston Center
11:52AM 29.8208 -95.6664 207° Southwest 154 177 2,000 -97 Descending Houston Center
11:53AM 29.7967 -95.6736 195° South 160 184 2,000  Level Houston Center
11:54AM 29.7467 -95.6697 176° South 151 174 2,000 -194 Level Houston Center
11:55AM 29.7103 -95.6656 174° South 144 166 1,600 -532 Descending Houston Center
11:56AM 29.6803 -95.6628 175° South 127 146 900 -581 Descending Houston Center
11:57AM 29.6492 -95.6597 175° South 117 135 400 -290 Descending Houston Center
11:58AM 29.6183 -95.6575 176° South 116 133 300 -97 Descending Houston Center